Time;durP1;ratioP1;P1;durP2;ratioP2;P2;SDS_P1;SDS_P2;PMS_P1;PMS_P2;Temp;Humidity;BMP_temperature;BMP_pressure;BME280_temperature;BME280_humidity;BME280_pressure;Samples;Min_cycle;Max_cycle;Signal;HPM_P1;HPM_P2
2022/03/30 00:02:13;;;;;;;84.83;37.28;;;;;;;5.75;68.10;97938.18;2185565;81;21026;-62
2022/03/30 00:05:15;;;;;;;91.00;36.73;;;;;;;5.78;68.04;97938.01;2185954;81;21025;-62
2022/03/30 00:08:17;;;;;;;154.68;61.02;;;;;;;5.70;68.22;97933.69;2185641;81;21032;-61
2022/03/30 00:11:18;;;;;;;210.53;83.53;;;;;;;5.68;68.32;97933.77;2186137;81;20985;-61
2022/03/30 00:14:19;;;;;;;175.57;71.70;;;;;;;5.78;68.09;97936.70;2185634;81;21037;-61
2022/03/30 00:17:21;;;;;;;72.32;31.93;;;;;;;5.80;67.85;97946.55;2185639;81;21473;-61
2022/03/30 00:20:22;;;;;;;56.88;27.58;;;;;;;5.64;68.03;97945.27;2185542;81;21068;-61
2022/03/30 00:23:24;;;;;;;57.33;27.20;;;;;;;5.50;68.55;97950.38;2185961;81;21548;-61
2022/03/30 00:26:25;;;;;;;53.55;24.23;;;;;;;5.47;68.53;97944.88;2185847;81;21066;-62
2022/03/30 00:29:27;;;;;;;53.33;24.70;;;;;;;5.49;68.53;97938.33;2185923;81;21481;-61
2022/03/30 00:32:29;;;;;;;51.23;24.67;;;;;;;5.45;68.51;97939.41;2185708;81;20973;-61
2022/03/30 00:35:30;;;;;;;51.10;23.00;;;;;;;5.41;68.35;97932.69;2185580;81;21056;-61
2022/03/30 00:38:31;;;;;;;54.40;25.80;;;;;;;5.31;68.36;97931.87;2185753;81;21013;-61
2022/03/30 00:41:33;;;;;;;55.70;25.25;;;;;;;5.26;68.48;97926.09;2185584;81;20951;-61
2022/03/30 00:44:34;;;;;;;57.58;25.17;;;;;;;5.19;68.56;97924.27;2185817;81;21029;-61
2022/03/30 00:47:36;;;;;;;59.73;26.57;;;;;;;5.29;68.81;97922.50;2185533;81;21076;-61
2022/03/30 00:50:38;;;;;;;56.92;26.05;;;;;;;5.30;68.44;97909.85;2185635;81;21477;-61
2022/03/30 00:53:39;;;;;;;55.70;25.82;;;;;;;5.24;68.63;97915.39;2185728;81;20981;-61
2022/03/30 00:56:41;;;;;;;56.33;27.15;;;;;;;5.24;68.50;97911.48;2185257;81;21029;-61
2022/03/30 00:59:42;;;;;;;57.65;27.50;;;;;;;5.20;68.51;97909.50;2185824;81;21469;-61
2022/03/30 01:02:43;;;;;;;60.40;26.80;;;;;;;5.16;68.62;97902.81;2185812;81;21023;-61
2022/03/30 01:05:45;;;;;;;58.35;28.42;;;;;;;5.17;68.71;97906.63;2185535;81;21469;-61
2022/03/30 01:08:48;;;;;;;59.93;26.70;;;;;;;5.13;68.57;97897.31;2185825;81;21016;-61
2022/03/30 01:11:51;;;;;;;55.63;26.48;;;;;;;5.12;68.38;97898.70;2185822;81;21231;-62
2022/03/30 01:14:52;;;;;;;58.38;26.95;;;;;;;5.06;68.52;97899.00;2185475;81;21579;-61
2022/03/30 01:17:54;;;;;;;60.60;26.57;;;;;;;5.09;68.77;97891.89;2185776;81;20994;-61
2022/03/30 01:20:56;;;;;;;61.73;28.90;;;;;;;5.04;68.81;97887.39;2186047;81;21464;-62
2022/03/30 01:23:58;;;;;;;;;;;;;;;5.06;68.77;97892.06;2187009;81;21018;-61
2022/03/30 01:27:00;;;;;;;59.33;26.93;;;;;;;5.00;68.94;97889.33;2182310;82;20120;-61
2022/03/30 01:33:04;;;;;;;60.30;28.20;;;;;;;4.87;69.16;97887.02;2163372;82;20982;-61
2022/03/30 01:36:06;;;;;;;61.53;29.18;;;;;;;4.93;69.38;97884.52;2182141;81;20994;-61
2022/03/30 01:39:07;;;;;;;58.33;27.05;;;;;;;5.00;68.98;97886.73;2182223;82;20995;-61
2022/03/30 01:42:09;;;;;;;60.55;27.85;;;;;;;5.00;68.87;97882.00;2182113;81;21022;-61
2022/03/30 01:45:15;;;;;;;60.67;26.95;;;;;;;4.93;68.79;97875.42;2182220;81;20986;-61
2022/03/30 01:48:14;;;;;;;60.23;26.30;;;;;;;4.92;68.81;97877.67;2163430;82;21025;-61
2022/03/30 01:51:16;;;;;;;60.43;27.58;;;;;;;4.90;69.08;97873.85;2182468;81;21005;-61
2022/03/30 01:54:17;;;;;;;58.30;26.75;;;;;;;4.92;68.91;97866.80;2181728;81;20959;-62
2022/03/30 01:57:19;;;;;;;57.15;26.70;;;;;;;4.91;68.84;97859.91;2182369;81;21497;-61
2022/03/30 02:00:24;;;;;;;57.65;27.62;;;;;;;4.90;68.86;97858.26;2182288;82;21029;-61
2022/03/30 02:03:25;;;;;;;62.15;28.23;;;;;;;4.86;69.15;97864.53;2163454;82;21017;-61
2022/03/30 02:06:27;;;;;;;58.78;27.95;;;;;;;4.83;69.09;97864.70;2182432;82;21061;-62
2022/03/30 02:09:28;;;;;;;62.40;27.77;;;;;;;4.86;68.77;97864.53;2182220;81;21480;-61
2022/03/30 02:12:30;;;;;;;59.17;25.43;;;;;;;4.82;68.82;97857.82;2182287;81;20994;-61
2022/03/30 02:15:32;;;;;;;54.23;26.63;;;;;;;4.78;68.08;97854.53;2182423;81;21589;-61
2022/03/30 02:18:34;;;;;;;58.78;25.25;;;;;;;4.71;68.07;97851.05;2182270;81;21025;-61
2022/03/30 02:21:36;;;;;;;57.20;25.32;;;;;;;4.64;68.59;97847.48;2182162;81;21022;-61
2022/03/30 02:24:38;;;;;;;55.00;25.70;;;;;;;4.63;68.39;97846.27;2183752;81;21010;-61
2022/03/30 02:27:39;;;;;;;54.67;25.07;;;;;;;4.60;68.53;97841.23;2186126;81;20982;-61
2022/03/30 02:30:41;;;;;;;55.00;25.33;;;;;;;4.57;68.86;97838.77;2185757;81;21285;-61
2022/03/30 02:33:43;;;;;;;52.65;23.02;;;;;;;4.51;69.09;97839.93;2186233;81;21489;-61
2022/03/30 02:36:45;;;;;;;60.05;24.85;;;;;;;4.58;69.14;97837.86;2185779;81;20954;-61
2022/03/30 02:39:46;;;;;;;56.23;25.65;;;;;;;4.61;69.03;97838.56;2185864;81;20993;-61
2022/03/30 02:42:48;;;;;;;54.35;25.80;;;;;;;4.74;69.06;97837.89;2185689;81;20998;-61
2022/03/30 02:45:49;;;;;;;60.28;26.00;;;;;;;4.77;68.73;97834.69;2185934;81;21552;-61
2022/03/30 02:48:51;;;;;;;61.20;26.33;;;;;;;4.75;68.80;97836.51;2186081;81;20978;-61
2022/03/30 02:51:53;;;;;;;54.15;25.68;;;;;;;4.70;68.78;97830.73;2185987;81;21497;-61
2022/03/30 02:54:54;;;;;;;56.75;25.12;;;;;;;4.66;68.98;97833.94;2186035;81;21104;-61
2022/03/30 02:57:56;;;;;;;56.60;25.50;;;;;;;4.73;69.07;97839.66;2185926;81;20960;-62
2022/03/30 03:00:57;;;;;;;55.10;24.92;;;;;;;4.76;68.93;97834.77;2185812;81;21330;-61
2022/03/30 03:03:59;;;;;;;56.97;24.10;;;;;;;4.78;69.18;97836.34;2185916;81;21002;-61
2022/03/30 03:07:00;;;;;;;56.28;25.05;;;;;;;4.81;69.25;97836.20;2185708;81;21105;-61
2022/03/30 03:10:02;;;;;;;54.40;24.90;;;;;;;4.85;69.09;97838.16;2185906;81;21014;-62
2022/03/30 03:13:04;;;;;;;53.95;24.37;;;;;;;4.84;69.29;97834.73;2185573;81;21537;-61
2022/03/30 03:16:05;;;;;;;60.73;26.90;;;;;;;4.99;69.54;97829.64;2185760;81;21029;-61
2022/03/30 03:19:06;;;;;;;68.42;30.32;;;;;;;5.12;68.99;97828.04;2185660;81;20977;-61
2022/03/30 03:22:08;;;;;;;66.57;27.65;;;;;;;5.06;68.78;97827.08;2185433;81;21133;-61
2022/03/30 03:25:10;;;;;;;54.95;25.65;;;;;;;5.08;68.84;97827.83;2185565;81;20971;-61
2022/03/30 03:28:11;;;;;;;66.97;29.90;;;;;;;5.18;68.59;97825.56;2185938;81;20993;-62
2022/03/30 03:31:13;;;;;;;65.62;27.35;;;;;;;5.32;68.62;97820.91;2185666;81;21005;-61
2022/03/30 03:34:14;;;;;;;49.77;24.37;;;;;;;5.32;68.38;97820.91;2185980;81;21599;-61
2022/03/30 03:37:17;;;;;;;;;;;;;;;5.28;68.34;97820.23;2188306;81;21037;-61
2022/03/30 03:40:18;;;;;;;52.78;23.67;;;;;;;5.22;68.44;97816.67;2140877;83;20127;-61
2022/03/30 03:43:20;;;;;;;52.67;23.32;;;;;;;5.12;68.67;97816.81;2124046;84;21553;-61
2022/03/30 03:46:21;;;;;;;56.80;24.10;;;;;;;5.12;68.92;97804.64;2124227;84;21028;-61
2022/03/30 03:49:23;;;;;;;51.98;23.60;;;;;;;5.24;68.75;97817.42;2124078;84;21044;-62
2022/03/30 03:52:24;;;;;;;56.45;24.87;;;;;;;5.24;68.91;97812.22;2124326;84;21566;-61
2022/03/30 03:55:26;;;;;;;56.68;26.42;;;;;;;5.29;69.01;97810.69;2141101;83;21027;-61
2022/03/30 03:58:28;;;;;;;62.35;27.50;;;;;;;5.22;69.09;97814.55;2141150;83;20959;-61
2022/03/30 04:01:30;;;;;;;64.50;27.60;;;;;;;5.20;69.25;97809.41;2141082;83;21100;-61
2022/03/30 04:04:32;;;;;;;60.65;26.40;;;;;;;5.10;69.67;97810.40;2141054;83;21270;-61
2022/03/30 04:07:34;;;;;;;59.77;26.17;;;;;;;5.05;69.94;97811.10;2140894;83;20991;-61
2022/03/30 04:10:35;;;;;;;58.30;26.15;;;;;;;5.05;69.77;97812.40;2141146;83;20994;-61
2022/03/30 04:13:37;;;;;;;57.98;25.43;;;;;;;5.08;69.82;97813.53;2140779;83;21095;-61
2022/03/30 04:16:40;;;;;;;58.15;26.55;;;;;;;5.05;69.78;97814.17;2141163;83;20983;-61
2022/03/30 04:19:41;;;;;;;58.40;26.95;;;;;;;5.03;69.78;97818.16;2140865;83;21466;-61
2022/03/30 04:22:43;;;;;;;57.90;26.60;;;;;;;5.02;69.69;97816.47;2140972;83;21003;-61
2022/03/30 04:25:45;;;;;;;60.33;26.48;;;;;;;4.69;70.89;97819.95;2138227;83;21516;-61
2022/03/30 04:28:46;;;;;;;60.05;26.40;;;;;;;4.69;71.04;97822.55;2136902;83;21019;-61
2022/03/30 04:31:49;;;;;;;57.40;26.50;;;;;;;4.68;71.16;97825.62;2182210;81;21485;-61
2022/03/30 04:34:50;;;;;;;59.70;27.20;;;;;;;4.64;71.79;97822.81;2182076;81;21342;-61
2022/03/30 04:37:53;;;;;;;57.10;25.52;;;;;;;4.59;71.63;97828.69;2182195;82;21536;-61
2022/03/30 04:40:54;;;;;;;60.28;26.23;;;;;;;4.54;72.01;97825.52;2182055;81;20975;-61
2022/03/30 04:43:56;;;;;;;55.73;25.95;;;;;;;4.60;72.10;97830.38;2182276;81;20994;-61
2022/03/30 04:46:58;;;;;;;55.60;26.70;;;;;;;4.63;72.34;97831.98;2182170;81;21053;-62
2022/03/30 04:49:59;;;;;;;56.40;26.40;;;;;;;4.71;72.15;97841.48;2182442;81;21013;-61
2022/03/30 04:53:02;;;;;;;59.80;27.45;;;;;;;4.75;72.04;97835.69;2181937;82;21613;-61
2022/03/30 04:56:03;;;;;;;56.55;27.37;;;;;;;4.84;72.09;97837.34;2181588;81;21029;-61
2022/03/30 04:59:05;;;;;;;60.28;27.32;;;;;;;4.94;72.01;97835.53;2182131;82;21572;-61
2022/03/30 05:02:07;;;;;;;62.50;28.15;;;;;;;5.07;71.87;97831.81;2182155;81;21531;-61
2022/03/30 05:05:09;;;;;;;63.02;29.12;;;;;;;5.13;71.78;97832.33;2181900;81;21033;-61
2022/03/30 05:08:11;;;;;;;68.22;30.32;;;;;;;5.25;71.61;97832.58;2182034;82;20954;-61
2022/03/30 05:11:12;;;;;;;62.93;28.55;;;;;;;5.42;71.38;97828.58;2181941;81;21016;-61
2022/03/30 05:14:14;;;;;;;64.50;29.42;;;;;;;5.51;71.43;97833.25;2182051;82;21023;-61
2022/03/30 05:17:15;;;;;;;64.97;29.45;;;;;;;5.45;71.37;97828.40;2182238;81;21563;-61
2022/03/30 05:20:17;;;;;;;77.00;37.05;;;;;;;5.44;71.56;97834.98;2182001;81;21009;-61
2022/03/30 05:23:18;;;;;;;75.25;34.95;;;;;;;5.48;71.62;97833.42;2181946;81;21501;-61
2022/03/30 05:26:20;;;;;;;71.30;36.20;;;;;;;5.59;71.67;97831.53;2184962;81;21076;-61
2022/03/30 05:29:21;;;;;;;67.97;32.83;;;;;;;5.70;71.57;97833.51;2185604;81;21421;-61
2022/03/30 05:32:24;;;;;;;61.37;28.85;;;;;;;5.77;71.13;97830.11;2168281;81;21018;-61
2022/03/30 05:35:26;;;;;;;63.48;30.02;;;;;;;5.79;71.15;97836.05;2185551;81;21552;-61
2022/03/30 05:38:28;;;;;;;67.47;29.93;;;;;;;5.78;71.39;97835.70;2185833;81;20938;-61
2022/03/30 05:41:30;;;;;;;62.08;30.17;;;;;;;5.92;71.29;97832.27;2185571;81;22226;-61
2022/03/30 05:44:32;;;;;;;61.65;29.15;;;;;;;5.96;71.19;97840.28;2185638;81;20978;-61
2022/03/30 05:47:33;;;;;;;73.65;30.90;;;;;;;6.00;71.22;97831.41;2185687;81;21573;-61
2022/03/30 05:50:35;;;;;;;67.42;32.15;;;;;;;6.10;70.83;97832.55;2185477;81;21071;-61
2022/03/30 05:53:36;;;;;;;64.63;31.10;;;;;;;6.14;70.79;97830.61;2186024;81;21457;-61
2022/03/30 05:59:41;;;;;;;69.07;33.45;;;;;;;6.33;71.06;97836.39;2168747;81;20978;-61
2022/03/30 06:02:42;;;;;;;67.72;32.35;;;;;;;6.41;70.41;97835.95;2185676;81;21465;-61
2022/03/30 06:05:45;;;;;;;63.78;30.80;;;;;;;6.52;70.52;97839.20;2185625;81;21053;-61
2022/03/30 06:08:46;;;;;;;65.80;31.12;;;;;;;6.65;71.22;97832.78;2186307;81;21528;-61
2022/03/30 06:11:47;;;;;;;70.72;32.28;;;;;;;6.68;70.46;97832.59;2185856;81;20966;-61
2022/03/30 06:14:49;;;;;;;68.30;33.00;;;;;;;6.72;69.98;97825.82;2185732;81;21002;-61
2022/03/30 06:17:50;;;;;;;68.75;33.10;;;;;;;6.80;70.44;97824.03;2185927;81;21029;-61
2022/03/30 06:20:52;;;;;;;61.27;32.30;;;;;;;6.94;70.21;97814.89;2186103;81;20967;-61
2022/03/30 06:23:54;;;;;;;59.65;31.20;;;;;;;7.22;69.42;97814.45;2186035;81;21766;-61
2022/03/30 06:26:57;;;;;;;69.70;33.35;;;;;;;7.34;68.09;97819.38;2163300;82;21006;-61
2022/03/30 06:29:59;;;;;;;64.37;32.40;;;;;;;7.34;68.23;97824.59;2182544;81;21070;-61
2022/03/30 06:33:01;;;;;;;66.28;31.35;;;;;;;7.36;68.89;97817.98;2182324;81;21527;-61
2022/03/30 06:36:02;;;;;;;62.15;31.77;;;;;;;7.49;66.68;97825.85;2182174;81;20986;-61
2022/03/30 06:39:04;;;;;;;62.35;31.65;;;;;;;7.33;66.55;97828.61;2182124;81;21046;-61
2022/03/30 06:42:06;;;;;;;63.35;31.70;;;;;;;7.21;68.05;97828.89;2182128;82;21037;-61
2022/03/30 06:45:08;;;;;;;71.33;33.33;;;;;;;7.16;67.78;97832.28;2182392;81;21490;-61
2022/03/30 06:48:09;;;;;;;61.40;31.23;;;;;;;7.37;67.84;97829.61;2182278;81;21029;-61
2022/03/30 06:51:11;;;;;;;61.85;30.65;;;;;;;7.42;67.76;97822.79;2182527;82;20989;-61
2022/03/30 06:54:13;;;;;;;64.42;31.30;;;;;;;7.45;66.78;97841.68;2182084;82;20995;-61
2022/03/30 06:57:14;;;;;;;65.60;31.87;;;;;;;7.40;67.16;97831.20;2182541;81;21484;-61
2022/03/30 07:00:17;;;;;;;57.93;29.77;;;;;;;7.56;67.72;97833.66;2182506;82;21018;-61
2022/03/30 07:03:22;;;;;;;59.63;29.52;;;;;;;7.55;66.75;97840.62;2182091;82;21525;-61
2022/03/30 07:06:22;;;;;;;58.55;30.77;;;;;;;7.57;67.57;97839.22;2163200;82;21006;-61
2022/03/30 07:12:27;;;;;;;54.13;29.05;;;;;;;7.58;67.07;97843.03;2163611;82;21021;-61
2022/03/30 07:15:28;;;;;;;56.42;28.90;;;;;;;7.76;66.58;97841.50;2181974;81;21029;-61
2022/03/30 07:18:29;;;;;;;58.23;30.57;;;;;;;7.88;65.73;97852.91;2182151;81;21481;-61
2022/03/30 07:21:31;;;;;;;59.77;30.90;;;;;;;7.89;66.25;97838.45;2182272;82;21017;-61
2022/03/30 07:24:33;;;;;;;64.23;31.67;;;;;;;8.04;65.90;97842.28;2182449;81;21449;-62
2022/03/30 07:27:34;;;;;;;64.80;32.20;;;;;;;8.14;65.43;97844.65;2182265;82;20994;-61
2022/03/30 07:30:37;;;;;;;60.00;30.20;;;;;;;8.19;65.06;97838.66;2182617;82;21477;-61
2022/03/30 07:33:38;;;;;;;63.20;32.38;;;;;;;8.18;64.01;97843.52;2182053;82;21033;-61
2022/03/30 07:36:40;;;;;;;62.17;29.80;;;;;;;8.20;65.26;97842.10;2182275;81;21022;-61
2022/03/30 07:39:41;;;;;;;56.73;28.92;;;;;;;8.34;63.85;97844.63;2182146;81;20955;-61
2022/03/30 07:42:43;;;;;;;60.15;29.82;;;;;;;8.42;63.09;97844.09;2181786;81;21493;-61
2022/03/30 07:45:44;;;;;;;60.50;30.20;;;;;;;8.58;64.04;97842.16;2182207;81;21037;-61
2022/03/30 07:48:45;;;;;;;55.45;29.52;;;;;;;8.88;63.89;97844.91;2182455;81;21057;-61
2022/03/30 07:51:47;;;;;;;55.50;28.52;;;;;;;9.22;62.10;97845.61;2182193;81;21005;-61
2022/03/30 07:54:48;;;;;;;53.40;29.37;;;;;;;9.40;60.36;97851.33;2182220;82;20975;-61
2022/03/30 07:57:50;;;;;;;58.33;30.53;;;;;;;9.42;60.06;97848.11;2182359;82;20951;-61
2022/03/30 08:00:51;;;;;;;58.02;28.45;;;;;;;9.63;60.73;97851.80;2181953;81;20978;-61
2022/03/30 08:03:53;;;;;;;57.05;27.70;;;;;;;9.74;58.82;97847.10;2182144;81;21464;-61
2022/03/30 08:06:55;;;;;;;57.13;28.23;;;;;;;9.70;58.79;97846.47;2182014;81;21058;-61
2022/03/30 08:09:56;;;;;;;54.53;28.40;;;;;;;9.67;58.52;97848.02;2181747;81;21022;-61
2022/03/30 08:12:58;;;;;;;48.20;25.23;;;;;;;9.97;59.92;97840.16;2182479;81;21021;-61
2022/03/30 08:15:59;;;;;;;49.40;25.50;;;;;;;10.20;57.63;97834.52;2182197;81;20966;-61
2022/03/30 08:19:01;;;;;;;50.15;25.25;;;;;;;10.25;55.51;97837.27;2182345;81;21493;-61
2022/03/30 08:25:07;;;;;;;49.80;23.77;;;;;;;10.66;57.47;97828.89;2163080;81;21015;-62
2022/03/30 08:28:08;;;;;;;46.20;24.10;;;;;;;11.25;55.87;97824.33;2182220;81;21009;-62
2022/03/30 08:31:10;;;;;;;44.20;22.30;;;;;;;11.50;56.90;97823.67;2182274;82;20999;-61
2022/03/30 08:34:13;;;;;;;44.37;21.17;;;;;;;11.95;50.80;97823.52;2182168;81;21737;-61
2022/03/30 08:37:14;;;;;;;45.33;23.42;;;;;;;12.02;53.26;97818.11;2181862;82;21044;-61
2022/03/30 08:40:16;;;;;;;37.08;18.30;;;;;;;12.34;50.83;97818.55;2182332;82;21045;-62
2022/03/30 08:43:18;;;;;;;40.63;18.50;;;;;;;12.29;47.01;97808.39;2182170;81;21014;-61
2022/03/30 08:46:20;;;;;;;37.85;18.50;;;;;;;12.24;51.73;97807.11;2182172;81;20978;-61
2022/03/30 08:49:21;;;;;;;39.78;18.17;;;;;;;12.33;48.29;97802.91;2182065;81;20991;-61
2022/03/30 08:52:23;;;;;;;41.73;17.47;;;;;;;12.17;46.42;97812.53;2182435;81;20983;-62
2022/03/30 08:55:24;;;;;;;42.03;19.23;;;;;;;12.02;45.76;97806.27;2182160;81;21029;-61
2022/03/30 08:58:26;;;;;;;36.70;17.20;;;;;;;12.33;50.58;97793.70;2182438;81;20955;-62
2022/03/30 09:01:27;;;;;;;35.05;16.40;;;;;;;12.55;47.07;97799.27;2182194;82;20978;-61
2022/03/30 09:04:29;;;;;;;39.00;17.40;;;;;;;12.67;44.40;97796.06;2182033;81;21085;-62
2022/03/30 09:07:31;;;;;;;35.20;15.63;;;;;;;12.51;47.85;97789.48;2181860;81;21014;-61
2022/03/30 09:10:32;;;;;;;32.27;13.73;;;;;;;12.68;43.62;97791.98;2182178;81;20986;-61
2022/03/30 09:13:35;;;;;;;33.98;14.20;;;;;;;12.71;46.51;97785.13;2182000;82;21499;-62
2022/03/30 09:16:37;;;;;;;36.63;16.82;;;;;;;12.60;42.75;97791.33;2181919;82;20994;-62
2022/03/30 09:19:40;;;;;;;37.23;15.75;;;;;;;12.10;43.25;97782.83;2182261;82;20974;-61
2022/03/30 09:22:41;;;;;;;31.97;13.98;;;;;;;11.99;44.20;97779.44;2163240;82;21045;-62
2022/03/30 09:25:44;;;;;;;32.63;13.43;;;;;;;11.89;42.46;97784.09;2182039;81;21493;-62
2022/03/30 09:28:45;;;;;;;;;;;;;;;11.65;43.44;97778.24;2184520;82;21034;-61
2022/03/30 09:31:47;;;;;;;31.68;12.55;;;;;;;12.00;43.96;97776.67;2182054;82;20108;-62
2022/03/30 09:34:48;;;;;;;31.77;13.40;;;;;;;12.28;41.55;97775.20;2182147;81;21038;-62
2022/03/30 09:37:50;;;;;;;29.57;12.77;;;;;;;12.16;41.57;97782.79;2182209;81;21449;-62
2022/03/30 09:40:51;;;;;;;31.13;13.63;;;;;;;12.19;41.61;97769.88;2182499;81;20998;-62
2022/03/30 09:43:53;;;;;;;30.95;12.65;;;;;;;12.05;42.66;97758.74;2181998;81;21098;-62
2022/03/30 09:46:55;;;;;;;32.33;13.40;;;;;;;12.23;43.03;97760.77;2182618;81;21010;-62
2022/03/30 09:49:58;;;;;;;33.28;13.13;;;;;;;12.41;40.89;97763.62;2182320;81;21037;-62
2022/03/30 09:52:59;;;;;;;29.98;11.48;;;;;;;12.28;42.57;97753.31;2182096;81;20982;-62
2022/03/30 09:56:01;;;;;;;29.18;12.25;;;;;;;12.23;41.86;97749.77;2182329;81;21437;-62
2022/03/30 09:59:05;;;;;;;30.25;11.78;;;;;;;12.35;40.26;97751.83;2182151;81;21030;-62
2022/03/30 10:02:06;;;;;;;27.90;11.15;;;;;;;12.18;42.40;97751.11;2163371;82;21057;-62
2022/03/30 10:05:08;;;;;;;28.27;11.25;;;;;;;12.58;40.81;97752.97;2182487;81;21921;-62
2022/03/30 10:08:09;;;;;;;33.23;13.07;;;;;;;12.80;40.66;97749.30;2182457;81;21021;-61
2022/03/30 10:11:12;;;;;;;30.20;11.40;;;;;;;13.11;39.81;97744.80;2182478;81;21524;-62
2022/03/30 10:14:13;;;;;;;27.73;11.35;;;;;;;13.34;39.63;97738.83;2182113;82;21057;-62
2022/03/30 10:17:15;;;;;;;27.70;11.63;;;;;;;13.16;39.20;97743.92;2182584;81;20985;-62
2022/03/30 10:20:17;;;;;;;30.20;12.60;;;;;;;12.87;39.19;97752.23;2182294;81;21046;-62
2022/03/30 10:23:18;;;;;;;28.35;11.85;;;;;;;12.84;39.08;97746.75;2182385;82;21030;-62
2022/03/30 10:26:20;;;;;;;28.40;11.00;;;;;;;13.34;40.20;97736.66;2183474;81;21021;-62
2022/03/30 10:29:21;;;;;;;26.57;11.73;;;;;;;14.16;39.28;97731.89;2186371;81;21491;-62
2022/03/30 10:32:23;;;;;;;28.23;10.67;;;;;;;14.28;37.22;97724.17;2186126;81;21024;-61
2022/03/30 10:35:24;;;;;;;26.42;10.15;;;;;;;14.02;37.67;97724.80;2185634;81;21490;-61
2022/03/30 10:38:26;;;;;;;26.97;10.37;;;;;;;13.53;36.08;97721.37;2185974;81;20982;-61
2022/03/30 10:41:27;;;;;;;31.43;11.67;;;;;;;13.15;36.21;97723.82;2185945;81;21476;-62
2022/03/30 10:44:29;;;;;;;28.37;12.37;;;;;;;12.74;38.50;97718.27;2186096;81;21042;-62
2022/03/30 10:47:30;;;;;;;28.80;11.40;;;;;;;12.83;38.87;97720.93;2185942;81;20950;-62
2022/03/30 10:50:31;;;;;;;26.70;10.83;;;;;;;12.83;38.61;97720.93;2186128;81;21005;-61
2022/03/30 10:53:34;;;;;;;27.50;10.13;;;;;;;13.02;38.20;97725.06;2185795;81;21060;-62
2022/03/30 10:56:36;;;;;;;31.10;12.35;;;;;;;13.12;38.72;97711.43;2185826;81;20982;-62
2022/03/30 10:59:37;;;;;;;29.65;12.13;;;;;;;13.20;38.23;97704.97;2185834;81;21523;-62
2022/03/30 11:02:39;;;;;;;29.63;11.97;;;;;;;13.32;39.72;97707.83;2186025;81;20962;-61
2022/03/30 11:05:40;;;;;;;32.40;12.97;;;;;;;13.34;37.38;97712.49;2185924;81;20955;-61
2022/03/30 11:08:42;;;;;;;30.95;12.15;;;;;;;13.11;38.77;97703.17;2185736;81;21014;-61
2022/03/30 11:11:44;;;;;;;29.75;11.60;;;;;;;13.31;38.38;97705.34;2185837;81;21018;-61
2022/03/30 11:14:47;;;;;;;;;;;;;;;13.50;37.68;97696.16;2188402;81;20973;-62
2022/03/30 11:17:49;;;;;;;28.02;11.78;;;;;;;13.88;39.53;97691.44;2141284;83;20123;-62
2022/03/30 11:20:50;;;;;;;28.85;11.85;;;;;;;14.61;38.14;97686.34;2124120;84;21059;-62
2022/03/30 11:23:52;;;;;;;28.60;11.37;;;;;;;14.38;36.15;97688.53;2124607;84;21481;-61
2022/03/30 11:26:53;;;;;;;31.23;12.40;;;;;;;14.18;37.46;97682.00;2120950;84;21104;-61
2022/03/30 11:29:55;;;;;;;33.63;13.30;;;;;;;14.61;37.07;97680.20;2117868;84;21502;-62
2022/03/30 11:32:56;;;;;;;29.20;11.90;;;;;;;14.93;36.86;97673.66;2117629;84;20957;-62
2022/03/30 11:35:57;;;;;;;31.00;12.87;;;;;;;14.67;34.74;97683.63;2117707;84;20992;-62
2022/03/30 11:38:59;;;;;;;31.60;13.13;;;;;;;13.96;35.06;97669.16;2117960;84;20983;-62
2022/03/30 11:42:00;;;;;;;29.47;13.17;;;;;;;13.64;37.02;97669.84;2117721;84;20987;-62
2022/03/30 11:48:06;;;;;;;31.23;13.78;;;;;;;14.33;36.78;97661.75;2099468;84;21070;-62
2022/03/30 11:51:08;;;;;;;29.23;13.68;;;;;;;14.65;36.84;97656.54;2127421;84;21479;-62
2022/03/30 11:54:09;;;;;;;28.23;12.78;;;;;;;14.63;36.28;97661.15;2126970;84;21067;-62
2022/03/30 11:57:11;;;;;;;31.83;13.60;;;;;;;14.47;36.43;97657.30;2127467;84;21067;-62
2022/03/30 12:00:12;;;;;;;30.13;13.27;;;;;;;14.25;36.19;97659.84;2127579;84;21014;-62
2022/03/30 12:03:14;;;;;;;27.65;12.60;;;;;;;14.42;36.49;97658.22;2127266;84;21122;-62
2022/03/30 12:06:15;;;;;;;32.57;12.87;;;;;;;14.47;35.57;97653.84;2127563;84;20944;-62
2022/03/30 12:09:17;;;;;;;32.40;13.35;;;;;;;14.29;35.74;97655.09;2127020;84;21093;-62
2022/03/30 12:12:19;;;;;;;31.68;12.82;;;;;;;14.26;35.34;97648.80;2127414;84;21007;-62
2022/03/30 12:15:20;;;;;;;33.00;13.87;;;;;;;14.33;37.26;97644.60;2127134;84;21030;-62
2022/03/30 12:18:21;;;;;;;32.30;13.93;;;;;;;14.50;36.69;97643.81;2127681;84;20983;-62
2022/03/30 12:21:23;;;;;;;33.47;13.97;;;;;;;14.59;36.23;97634.68;2127449;84;21018;-62
2022/03/30 12:24:24;;;;;;;33.50;13.47;;;;;;;14.79;35.10;97642.02;2127560;84;21565;-62
2022/03/30 12:27:26;;;;;;;28.15;13.20;;;;;;;14.64;36.46;97643.00;2133735;83;20984;-62
2022/03/30 12:30:27;;;;;;;32.40;15.07;;;;;;;14.36;36.90;97646.95;2138221;83;21075;-62
2022/03/30 12:33:29;;;;;;;29.33;12.63;;;;;;;14.74;37.08;97638.52;2138306;83;20971;-62
2022/03/30 12:36:30;;;;;;;30.48;13.25;;;;;;;14.82;35.68;97641.22;2138110;83;21000;-62
2022/03/30 12:39:32;;;;;;;30.33;12.97;;;;;;;14.69;34.38;97644.72;2138372;83;20986;-62
2022/03/30 12:42:34;;;;;;;32.20;13.20;;;;;;;14.46;35.75;97634.53;2138007;83;21098;-62
2022/03/30 12:45:35;;;;;;;32.05;13.65;;;;;;;14.22;34.63;97629.78;2137892;83;21570;-62
2022/03/30 12:48:39;;;;;;;30.80;13.07;;;;;;;13.97;35.14;97639.20;2138207;83;21035;-62
2022/03/30 12:54:43;;;;;;;32.95;13.85;;;;;;;13.68;36.24;97619.85;2113454;83;20987;-62
2022/03/30 12:57:45;;;;;;;34.27;13.70;;;;;;;13.97;36.39;97614.16;2138302;83;21514;-62
2022/03/30 13:00:46;;;;;;;34.97;15.67;;;;;;;14.14;36.67;97613.39;2138209;83;21090;-62
2022/03/30 13:03:48;;;;;;;30.80;14.20;;;;;;;14.51;35.88;97617.78;2138139;83;21626;-62
2022/03/30 13:06:50;;;;;;;28.92;14.05;;;;;;;14.11;35.25;97615.00;2138093;83;21047;-62
2022/03/30 13:09:52;;;;;;;33.58;14.13;;;;;;;14.01;36.20;97615.03;2137846;83;21059;-62
2022/03/30 13:12:55;;;;;;;29.43;13.80;;;;;;;13.85;35.08;97613.02;2138576;83;21006;-62
2022/03/30 13:15:57;;;;;;;30.57;13.88;;;;;;;13.64;35.86;97614.52;2138245;83;21466;-62
2022/03/30 13:18:58;;;;;;;31.70;13.97;;;;;;;13.79;36.44;97609.64;2138399;83;20986;-62
2022/03/30 13:21:59;;;;;;;31.80;14.33;;;;;;;14.15;37.06;97602.34;2138704;83;21470;-62
2022/03/30 13:25:01;;;;;;;32.83;13.63;;;;;;;14.51;36.91;97594.50;2138594;83;20995;-62
2022/03/30 13:28:02;;;;;;;33.18;13.65;;;;;;;14.51;35.84;97582.63;2138179;83;21095;-62
2022/03/30 13:31:05;;;;;;;33.07;14.37;;;;;;;14.55;36.25;97586.17;2138617;83;21030;-62
2022/03/30 13:34:07;;;;;;;31.93;13.68;;;;;;;14.68;36.82;97578.39;2138272;83;21582;-62
2022/03/30 13:37:09;;;;;;;32.55;12.95;;;;;;;14.92;36.77;97585.71;2138057;83;21114;-62
2022/03/30 13:40:10;;;;;;;31.25;13.03;;;;;;;15.01;35.44;97583.50;2138441;83;21014;-62
2022/03/30 13:43:12;;;;;;;31.07;13.43;;;;;;;14.93;35.54;97578.61;2138270;83;21066;-62
2022/03/30 13:46:14;;;;;;;29.67;13.57;;;;;;;14.74;35.49;97576.49;2138504;83;21493;-62
2022/03/30 13:49:15;;;;;;;29.47;12.83;;;;;;;14.49;34.49;97579.33;2138611;83;21030;-62
2022/03/30 13:52:18;;;;;;;28.07;12.63;;;;;;;14.09;34.55;97574.75;2138471;83;21014;-62
2022/03/30 13:58:23;;;;;;;34.38;14.35;;;;;;;13.96;37.02;97564.54;2113701;83;20996;-62
2022/03/30 14:01:24;;;;;;;31.05;13.25;;;;;;;14.18;37.02;97562.02;2138501;83;20971;-62
2022/03/30 14:04:26;;;;;;;30.23;13.57;;;;;;;14.34;36.65;97557.91;2138227;83;21034;-61
2022/03/30 14:07:30;;;;;;;34.55;15.03;;;;;;;14.44;36.18;97555.19;2138164;83;21026;-62
2022/03/30 14:10:31;;;;;;;34.00;15.08;;;;;;;14.44;36.65;97551.23;2114118;83;21245;-62
2022/03/30 14:13:32;;;;;;;31.27;14.07;;;;;;;14.43;36.97;97557.01;2138438;83;20991;-62
2022/03/30 14:16:34;;;;;;;34.83;15.80;;;;;;;14.35;36.70;97549.00;2138667;83;21544;-62
2022/03/30 14:19:38;;;;;;;34.50;16.60;;;;;;;14.43;36.75;97546.45;2138464;83;20975;-62
2022/03/30 14:22:38;;;;;;;33.60;14.03;;;;;;;14.50;36.52;97548.84;2113826;83;21030;-62